createdAt,value
2023-02-19T00:02:00.604Z,6.80
2023-02-19T00:04:29.043Z,4.90
2023-02-19T00:06:57.932Z,4.90
2023-02-19T00:09:27.513Z,5.40
2023-02-19T00:11:55.418Z,6.20
2023-02-19T00:14:23.528Z,6.30
2023-02-19T00:16:51.554Z,7.30
2023-02-19T00:19:21.072Z,7.40
2023-02-19T00:21:52.954Z,5.70
2023-02-19T00:24:21.578Z,5.70
2023-02-19T00:26:53.532Z,5.50
2023-02-19T00:29:22.191Z,5.50
2023-02-19T00:31:50.756Z,5.10
2023-02-19T00:34:18.996Z,5.40
2023-02-19T00:36:46.881Z,5.00
2023-02-19T00:39:15.995Z,5.00
2023-02-19T00:41:44.708Z,4.60
2023-02-19T00:44:13.785Z,6.40
2023-02-19T00:46:44.206Z,5.50
2023-02-19T00:49:16.593Z,5.70
2023-02-19T00:51:44.771Z,5.40
2023-02-19T00:54:14.364Z,5.40
2023-02-19T00:56:42.724Z,7.80
2023-02-19T00:59:10.578Z,10.30
2023-02-19T01:01:40.043Z,9.20
2023-02-19T01:06:50.355Z,8.80
2023-02-19T01:09:18.568Z,8.20
2023-02-19T01:11:47.001Z,6.70
2023-02-19T01:14:15.288Z,7.10
2023-02-19T01:16:43.431Z,6.50
2023-02-19T01:19:11.869Z,8.10
2023-02-19T01:21:40.816Z,6.80
2023-02-19T01:24:09.929Z,6.60
2023-02-19T01:26:38.050Z,6.50
2023-02-19T01:29:07.915Z,5.00
2023-02-19T01:31:36.793Z,7.00
2023-02-19T01:34:04.734Z,6.00
2023-02-19T01:36:33.491Z,8.10
2023-02-19T01:39:04.129Z,6.20
2023-02-19T01:41:35.520Z,7.00
2023-02-19T01:44:03.872Z,6.40
2023-02-19T01:46:33.536Z,6.60
2023-02-19T01:49:14.246Z,8.70
2023-02-19T01:51:51.118Z,6.70
2023-02-19T01:54:20.630Z,7.90
2023-02-19T01:56:49.075Z,7.00
2023-02-19T01:59:17.382Z,6.60
2023-02-19T02:01:45.725Z,5.20
2023-02-19T02:04:13.976Z,4.60
2023-02-19T02:06:52.371Z,6.30
2023-02-19T02:09:41.351Z,5.30
2023-02-19T02:12:09.543Z,4.90
2023-02-19T02:14:40.535Z,5.00
2023-02-19T02:17:25.986Z,6.00
2023-02-19T02:20:15.434Z,5.40
2023-02-19T02:22:57.701Z,6.40
2023-02-19T02:25:44.481Z,7.90
2023-02-19T02:28:50.816Z,6.80
2023-02-19T02:31:20.612Z,6.70
2023-02-19T02:34:12.060Z,7.70
2023-02-19T02:36:43.661Z,7.30
2023-02-19T02:39:14.517Z,7.50
2023-02-19T02:41:44.077Z,6.90
2023-02-19T02:44:13.044Z,6.40
2023-02-19T02:46:42.129Z,7.20
2023-02-19T02:49:20.535Z,7.30
2023-02-19T02:51:51.159Z,6.50
2023-02-19T02:54:51.606Z,7.00
2023-02-19T02:57:21.946Z,5.20
2023-02-19T02:59:53.319Z,5.80
2023-02-19T03:02:24.936Z,6.00
2023-02-19T03:05:20.520Z,5.00
2023-02-19T03:07:56.738Z,5.10
2023-02-19T03:10:43.237Z,4.60
2023-02-19T03:13:44.313Z,5.20
2023-02-19T03:16:37.057Z,5.50
2023-02-19T03:19:32.066Z,5.60
2023-02-19T03:22:03.230Z,6.20
2023-02-19T03:24:51.101Z,5.10
2023-02-19T03:27:20.199Z,5.50
2023-02-19T03:29:50.351Z,5.30
2023-02-19T03:32:21.461Z,5.90
2023-02-19T03:34:55.420Z,6.70
2023-02-19T03:37:37.235Z,7.40
2023-02-19T03:40:06.072Z,7.60
2023-02-19T03:43:03.026Z,8.40
2023-02-19T03:45:42.552Z,6.50
2023-02-19T03:48:29.184Z,7.30
2023-02-19T03:51:19.216Z,7.10
2023-02-19T03:53:54.077Z,5.90
2023-02-19T03:56:38.391Z,6.80
2023-02-19T03:59:13.036Z,6.40
2023-02-19T04:02:09.346Z,4.70
2023-02-19T04:04:44.857Z,6.00
2023-02-19T04:07:15.004Z,6.00
2023-02-19T04:09:45.109Z,6.20
2023-02-19T04:12:19.405Z,5.20
2023-02-19T04:14:53.212Z,5.10
2023-02-19T04:17:34.497Z,6.90
2023-02-19T04:20:05.703Z,5.10
2023-02-19T04:22:34.898Z,5.40
2023-02-19T04:25:02.842Z,9.00
2023-02-19T04:27:31.350Z,51.30
2023-02-19T04:30:01.158Z,59.70
2023-02-19T04:32:29.815Z,61.40
2023-02-19T04:34:57.732Z,11.00
2023-02-19T04:37:25.882Z,10.50
2023-02-19T04:39:53.800Z,20.70
2023-02-19T04:42:21.865Z,18.70
2023-02-19T04:44:49.960Z,15.90
2023-02-19T04:47:18.004Z,16.50
2023-02-19T04:49:46.238Z,16.20
2023-02-19T04:53:16.931Z,6.10
2023-02-19T04:55:45.234Z,7.50
2023-02-19T04:58:14.697Z,6.90
2023-02-19T05:00:42.587Z,6.80
2023-02-19T05:03:11.087Z,7.50
2023-02-19T05:05:39.523Z,6.30
2023-02-19T05:08:08.093Z,5.80
2023-02-19T05:10:36.780Z,6.60
2023-02-19T05:13:06.157Z,5.20
2023-02-19T05:15:34.240Z,5.40
2023-02-19T05:18:02.298Z,5.80
2023-02-19T05:20:30.256Z,5.50
2023-02-19T05:22:58.282Z,7.70
2023-02-19T05:25:28.050Z,7.10
2023-02-19T05:28:16.759Z,6.70
2023-02-19T05:30:50.640Z,7.60
2023-02-19T05:33:20.772Z,8.10
2023-02-19T05:35:50.703Z,7.20
2023-02-19T05:38:18.940Z,54.60
2023-02-19T05:40:47.591Z,16.90
2023-02-19T05:43:15.938Z,23.00
2023-02-19T05:45:47.512Z,34.80
2023-02-19T05:48:16.256Z,28.20
2023-02-19T05:50:45.577Z,24.00
2023-02-19T05:53:15.444Z,31.40
2023-02-19T05:55:43.421Z,31.40
2023-02-19T05:58:12.250Z,37.20
2023-02-19T06:00:40.263Z,15.30
2023-02-19T06:03:08.204Z,47.30
2023-02-19T06:05:37.482Z,22.70
2023-02-19T06:08:05.680Z,38.40
2023-02-19T06:10:34.165Z,40.90
2023-02-19T06:13:03.984Z,31.40
2023-02-19T06:15:32.722Z,14.30
2023-02-19T06:18:01.106Z,34.30
2023-02-19T06:20:29.899Z,30.00
2023-02-19T06:22:58.718Z,46.30
2023-02-19T06:25:26.775Z,39.90
2023-02-19T06:27:55.235Z,5.80
2023-02-19T06:30:23.503Z,5.30
2023-02-19T06:32:54.033Z,6.00
2023-02-19T06:35:24.472Z,5.70
2023-02-19T06:37:52.656Z,5.40
2023-02-19T06:40:20.829Z,4.90
2023-02-19T06:42:49.167Z,6.00
2023-02-19T06:45:17.347Z,5.10
2023-02-19T06:47:45.425Z,5.10
2023-02-19T06:50:13.396Z,5.30
2023-02-19T06:52:41.388Z,5.30
2023-02-19T06:55:09.705Z,7.60
2023-02-19T06:57:39.522Z,7.10
2023-02-19T07:00:09.418Z,8.70
2023-02-19T07:02:37.457Z,32.70
2023-02-19T07:06:00.994Z,6.80
2023-02-19T07:08:33.348Z,6.20
2023-02-19T07:11:01.593Z,6.90
2023-02-19T07:13:29.660Z,6.50
2023-02-19T07:16:00.423Z,5.90
2023-02-19T07:18:30.223Z,7.70
2023-02-19T07:21:05.881Z,7.10
2023-02-19T07:23:34.566Z,6.30
2023-02-19T07:26:02.756Z,7.40
2023-02-19T07:28:30.738Z,7.80
2023-02-19T07:31:02.613Z,9.20
2023-02-19T07:33:30.821Z,7.40
2023-02-19T07:35:58.944Z,6.70
2023-02-19T07:38:27.228Z,6.10
2023-02-19T07:40:59.402Z,6.20
2023-02-19T07:43:29.635Z,5.90
2023-02-19T07:46:16.217Z,6.60
2023-02-19T07:48:44.800Z,6.50
2023-02-19T07:51:19.033Z,6.00
2023-02-19T07:53:50.412Z,5.90
2023-02-19T07:56:19.362Z,6.30
2023-02-19T07:58:47.837Z,6.60
2023-02-19T08:01:40.033Z,6.80
2023-02-19T08:04:08.702Z,6.30
2023-02-19T08:06:36.946Z,5.30
2023-02-19T08:09:05.698Z,6.10
2023-02-19T08:11:52.564Z,6.20
2023-02-19T08:14:25.188Z,6.00
2023-02-19T08:16:53.441Z,6.50
2023-02-19T08:19:22.538Z,6.10
2023-02-19T08:21:50.993Z,5.40
2023-02-19T08:24:20.588Z,5.40
2023-02-19T08:26:50.232Z,6.60
2023-02-19T08:29:18.298Z,5.40
2023-02-19T08:31:46.436Z,5.10
2023-02-19T08:34:14.537Z,5.70
2023-02-19T08:36:44.203Z,5.40
2023-02-19T08:39:12.250Z,4.70
2023-02-19T08:41:40.241Z,5.00
2023-02-19T08:44:08.953Z,4.90
2023-02-19T08:46:37.877Z,4.90
2023-02-19T08:49:05.812Z,5.30
2023-02-19T08:51:33.796Z,5.30
2023-02-19T08:54:04.036Z,6.00
2023-02-19T08:56:32.168Z,4.50
2023-02-19T08:59:00.145Z,4.90
2023-02-19T09:01:28.338Z,5.50
2023-02-19T09:03:56.583Z,5.70
2023-02-19T09:06:24.648Z,5.80
2023-02-19T09:08:58.319Z,5.00
2023-02-19T09:11:26.721Z,4.40
2023-02-19T09:13:56.060Z,3.90
2023-02-19T09:16:24.313Z,4.40
2023-02-19T09:18:52.268Z,5.30
2023-02-19T09:21:20.419Z,4.20
2023-02-19T09:23:48.516Z,4.70
2023-02-19T09:26:19.341Z,4.20
2023-02-19T09:28:50.100Z,4.60
2023-02-19T09:31:18.241Z,4.90
2023-02-19T09:33:47.147Z,4.20
2023-02-19T09:36:15.978Z,4.40
2023-02-19T09:38:44.534Z,4.70
2023-02-19T09:41:30.190Z,3.90
2023-02-19T09:43:59.110Z,5.00
2023-02-19T09:46:29.141Z,5.30
2023-02-19T09:49:03.461Z,4.20
2023-02-19T09:51:32.852Z,4.90
2023-02-19T09:54:01.930Z,4.30
2023-02-19T09:56:32.532Z,5.10
2023-02-19T09:59:00.569Z,5.10
2023-02-19T10:01:31.024Z,5.00
2023-02-19T10:03:59.158Z,5.60
2023-02-19T10:06:29.980Z,5.10
2023-02-19T10:09:25.964Z,5.10
2023-02-19T10:11:54.918Z,5.70
2023-02-19T10:14:28.932Z,5.50
2023-02-19T10:16:58.132Z,4.80
2023-02-19T10:19:27.580Z,5.10
2023-02-19T10:21:56.883Z,4.90
2023-02-19T10:24:27.451Z,4.80
2023-02-19T10:26:56.142Z,4.80
2023-02-19T10:29:24.996Z,4.90
2023-02-19T10:32:18.336Z,5.60
2023-02-19T10:34:47.555Z,6.10
2023-02-19T10:37:17.456Z,5.00
2023-02-19T10:39:47.817Z,6.00
2023-02-19T10:42:22.944Z,5.30
2023-02-19T10:44:58.646Z,3.90
2023-02-19T10:47:26.882Z,5.80
2023-02-19T10:49:57.011Z,5.10
2023-02-19T10:52:34.302Z,4.10
2023-02-19T10:55:19.030Z,5.20
2023-02-19T10:57:47.344Z,8.30
2023-02-19T11:00:15.262Z,8.00
2023-02-19T11:02:44.289Z,8.20
2023-02-19T11:05:14.598Z,5.40
2023-02-19T11:07:48.707Z,5.40
2023-02-19T11:10:28.716Z,5.90
2023-02-19T11:15:33.063Z,3.80
2023-02-19T11:18:05.123Z,4.50
2023-02-19T11:20:34.116Z,5.30
2023-02-19T11:23:12.448Z,6.30
2023-02-19T11:25:45.794Z,5.70
2023-02-19T11:28:17.896Z,6.50
2023-02-19T11:30:46.752Z,6.00
2023-02-19T11:33:20.028Z,5.70
2023-02-19T11:35:49.154Z,5.80
2023-02-19T11:38:19.375Z,4.30
2023-02-19T11:41:03.087Z,5.30
2023-02-19T11:43:49.899Z,4.10
2023-02-19T11:46:22.958Z,3.80
2023-02-19T11:49:03.259Z,7.00
2023-02-19T11:51:51.465Z,5.90
2023-02-19T11:54:41.828Z,6.90
2023-02-19T11:57:15.032Z,5.40
2023-02-19T11:59:59.327Z,5.10
2023-02-19T12:03:11.754Z,4.30
2023-02-19T12:06:04.753Z,3.40
2023-02-19T12:08:58.479Z,4.30
2023-02-19T12:11:37.238Z,4.10
2023-02-19T12:14:32.961Z,4.80
2023-02-19T12:17:25.077Z,4.70
2023-02-19T12:20:13.325Z,3.70
2023-02-19T12:23:04.102Z,4.20
2023-02-19T12:25:56.968Z,4.70
2023-02-19T12:28:41.241Z,4.30
2023-02-19T12:31:34.832Z,3.60
2023-02-19T12:34:21.902Z,4.00
2023-02-19T12:37:11.139Z,4.10
2023-02-19T12:39:52.274Z,4.20
2023-02-19T12:42:51.517Z,3.70
2023-02-19T12:45:21.624Z,5.00
2023-02-19T12:48:00.531Z,3.30
2023-02-19T12:50:29.355Z,4.80
2023-02-19T12:53:00.728Z,4.60
2023-02-19T12:55:36.271Z,3.60
2023-02-19T12:58:05.783Z,4.20
2023-02-19T13:00:35.822Z,3.80
2023-02-19T13:04:00.248Z,4.30
2023-02-19T13:06:41.911Z,4.80
2023-02-19T13:09:33.296Z,4.10
2023-02-19T13:12:04.587Z,4.60
2023-02-19T13:14:36.825Z,4.60
2023-02-19T13:17:16.735Z,5.20
2023-02-19T13:19:48.652Z,4.50
2023-02-19T13:22:46.634Z,4.60
2023-02-19T13:25:19.831Z,4.00
2023-02-19T13:27:52.238Z,5.70
2023-02-19T13:30:34.138Z,4.80
2023-02-19T13:33:16.190Z,5.20
2023-02-19T13:36:01.476Z,4.70
2023-02-19T13:38:29.640Z,4.80
2023-02-19T13:40:59.164Z,6.50
2023-02-19T13:43:34.884Z,7.00
2023-02-19T13:46:12.443Z,6.40
2023-02-19T13:48:42.141Z,5.70
2023-02-19T13:51:13.300Z,4.80
2023-02-19T13:53:42.853Z,4.70
2023-02-19T13:56:29.805Z,5.30
2023-02-19T13:59:22.225Z,6.80
2023-02-19T14:01:52.693Z,6.20
2023-02-19T14:04:50.415Z,7.40
2023-02-19T14:07:18.851Z,8.10
2023-02-19T14:09:47.694Z,8.00
2023-02-19T14:12:19.445Z,5.90
2023-02-19T14:14:51.558Z,7.60
2023-02-19T14:17:46.085Z,6.20
2023-02-19T14:20:17.151Z,6.70
2023-02-19T14:22:58.376Z,6.50
2023-02-19T14:25:27.149Z,6.00
2023-02-19T14:28:17.097Z,6.60
2023-02-19T14:31:18.016Z,8.40
2023-02-19T14:33:55.046Z,5.70
2023-02-19T14:36:45.130Z,6.40
2023-02-19T14:39:24.752Z,5.20
2023-02-19T14:41:56.715Z,5.00
2023-02-19T14:44:26.494Z,5.30
2023-02-19T14:46:56.763Z,4.90
2023-02-19T14:49:28.420Z,4.60
2023-02-19T14:51:59.572Z,4.40
2023-02-19T14:54:51.101Z,4.80
2023-02-19T14:57:22.438Z,4.70
2023-02-19T14:59:58.880Z,4.80
2023-02-19T15:02:31.292Z,4.80
2023-02-19T15:04:59.245Z,4.50
2023-02-19T15:07:32.468Z,4.20
2023-02-19T15:10:05.556Z,5.40
2023-02-19T15:12:39.137Z,4.20
2023-02-19T15:15:08.473Z,4.60
2023-02-19T15:17:36.618Z,4.20
2023-02-19T15:20:09.502Z,5.10
2023-02-19T15:22:40.010Z,4.80
2023-02-19T15:25:08.757Z,6.60
2023-02-19T15:27:37.529Z,6.50
2023-02-19T15:30:19.410Z,5.70
2023-02-19T15:33:00.653Z,7.00
2023-02-19T15:35:29.319Z,6.90
2023-02-19T15:37:57.352Z,6.50
2023-02-19T15:40:32.554Z,7.30
2023-02-19T15:43:01.106Z,6.30
2023-02-19T15:45:33.198Z,6.70
2023-02-19T15:48:30.814Z,6.60
2023-02-19T15:51:08.215Z,5.60
2023-02-19T15:53:43.439Z,5.70
2023-02-19T15:56:28.413Z,5.20
2023-02-19T15:59:00.621Z,6.40
2023-02-19T16:01:34.584Z,4.80
2023-02-19T16:04:02.584Z,4.60
2023-02-19T16:06:30.783Z,6.60
2023-02-19T16:09:02.168Z,4.80
2023-02-19T16:11:53.171Z,4.30
2023-02-19T16:14:38.704Z,4.40
2023-02-19T16:17:09.672Z,5.00
2023-02-19T16:19:57.903Z,3.90
2023-02-19T16:22:33.720Z,5.30
2023-02-19T16:25:03.860Z,4.50
2023-02-19T16:27:40.061Z,4.40
2023-02-19T16:30:17.477Z,4.30
2023-02-19T16:32:47.297Z,5.30
2023-02-19T16:35:37.495Z,5.50
2023-02-19T16:38:15.156Z,4.60
2023-02-19T16:40:51.047Z,6.70
2023-02-19T16:43:27.671Z,4.80
2023-02-19T16:45:55.782Z,4.70
2023-02-19T16:48:23.847Z,5.30
2023-02-19T16:50:52.835Z,5.20
2023-02-19T16:53:22.562Z,5.00
2023-02-19T16:55:51.012Z,6.50
2023-02-19T16:58:19.673Z,4.90
2023-02-19T17:00:47.708Z,5.30
2023-02-19T17:03:20.254Z,4.90
2023-02-19T17:05:49.591Z,5.10
2023-02-19T17:08:23.782Z,5.60
2023-02-19T17:13:22.375Z,4.70
2023-02-19T17:15:50.557Z,5.60
2023-02-19T17:18:21.122Z,5.70
2023-02-19T17:21:09.530Z,5.40
2023-02-19T17:23:38.014Z,5.90
2023-02-19T17:26:06.322Z,7.60
2023-02-19T17:28:37.019Z,7.70
2023-02-19T17:31:05.440Z,5.70
2023-02-19T17:33:34.271Z,5.70
2023-02-19T17:36:02.279Z,5.40
2023-02-19T17:38:30.720Z,6.30
2023-02-19T17:40:59.113Z,5.70
2023-02-19T17:43:27.573Z,5.70
2023-02-19T17:45:55.902Z,6.30
2023-02-19T17:48:24.573Z,5.70
2023-02-19T17:50:55.586Z,6.50
2023-02-19T17:53:24.089Z,8.10
2023-02-19T17:55:52.536Z,6.70
2023-02-19T17:58:20.864Z,6.50
2023-02-19T18:00:48.875Z,7.60
2023-02-19T18:03:17.137Z,7.40
2023-02-19T18:05:45.565Z,6.10
2023-02-19T18:08:13.776Z,6.10
2023-02-19T18:10:43.865Z,6.20
2023-02-19T18:13:15.911Z,7.10
2023-02-19T18:15:44.223Z,5.40
2023-02-19T18:18:12.438Z,6.80
2023-02-19T18:20:49.304Z,5.70
2023-02-19T18:23:17.935Z,6.30
2023-02-19T18:25:49.836Z,5.40
2023-02-19T18:28:18.466Z,5.50
2023-02-19T18:30:46.764Z,6.20
2023-02-19T18:33:16.581Z,6.90
2023-02-19T18:35:47.455Z,7.80
2023-02-19T18:38:15.611Z,7.60
2023-02-19T18:40:44.377Z,9.70
2023-02-19T18:43:12.814Z,7.80
2023-02-19T18:45:43.485Z,8.00
2023-02-19T18:48:11.702Z,7.80
2023-02-19T18:50:40.215Z,8.00
2023-02-19T18:53:08.269Z,8.40
2023-02-19T18:55:36.659Z,7.70
2023-02-19T18:58:04.721Z,9.20
2023-02-19T19:00:32.794Z,7.20
2023-02-19T19:03:01.087Z,6.80
2023-02-19T19:05:29.634Z,6.20
2023-02-19T19:07:59.511Z,6.50
2023-02-19T19:10:28.048Z,4.70
2023-02-19T19:12:56.135Z,4.60
2023-02-19T19:15:24.303Z,5.20
2023-02-19T19:17:53.896Z,5.20
2023-02-19T19:25:29.791Z,5.30
2023-02-19T19:27:58.950Z,5.00
2023-02-19T19:30:27.112Z,4.50
2023-02-19T19:32:55.824Z,5.30
2023-02-19T19:35:23.829Z,5.30
2023-02-19T19:37:51.731Z,4.70
2023-02-19T19:40:20.002Z,5.20
2023-02-19T19:42:48.226Z,4.60
2023-02-19T19:45:16.448Z,4.20
2023-02-19T19:47:44.467Z,4.80
2023-02-19T19:50:14.676Z,5.50
2023-02-19T19:52:43.429Z,4.60
2023-02-19T19:55:12.601Z,4.50
2023-02-19T19:57:41.775Z,6.10
2023-02-19T20:00:17.875Z,4.80
2023-02-19T20:02:46.563Z,7.10
2023-02-19T20:05:17.733Z,4.80
2023-02-19T20:07:49.835Z,4.40
2023-02-19T20:10:20.011Z,4.50
2023-02-19T20:12:48.493Z,5.40
2023-02-19T20:15:21.310Z,5.20
2023-02-19T20:17:50.042Z,4.60
2023-02-19T20:20:18.741Z,4.50
2023-02-19T20:22:51.809Z,4.40
2023-02-19T20:25:21.739Z,4.70
2023-02-19T20:27:50.626Z,4.20
2023-02-19T20:30:22.416Z,3.90
2023-02-19T20:32:50.450Z,4.60
2023-02-19T20:35:18.721Z,4.10
2023-02-19T20:37:48.111Z,5.10
2023-02-19T20:40:17.325Z,4.20
2023-02-19T20:42:45.292Z,5.60
2023-02-19T20:45:16.721Z,5.60
2023-02-19T20:47:45.953Z,4.20
2023-02-19T20:50:16.260Z,4.30
2023-02-19T20:52:46.186Z,4.20
2023-02-19T20:55:14.071Z,4.80
2023-02-19T20:57:42.658Z,3.90
2023-02-19T21:00:11.365Z,3.50
2023-02-19T21:02:39.297Z,3.10
2023-02-19T21:05:07.268Z,3.00
2023-02-19T21:07:35.648Z,4.10
2023-02-19T21:10:03.890Z,3.70
2023-02-19T21:12:35.106Z,3.20
2023-02-19T21:15:04.798Z,3.30
2023-02-19T21:17:32.977Z,3.90
2023-02-19T21:20:00.906Z,3.90
2023-02-19T21:22:29.225Z,4.20
2023-02-19T21:25:00.991Z,3.50
2023-02-19T21:27:29.981Z,3.10
2023-02-19T21:32:43.286Z,3.70
2023-02-19T21:35:11.719Z,3.10
2023-02-19T21:37:43.128Z,3.30
2023-02-19T21:40:12.200Z,3.80
2023-02-19T21:42:40.418Z,3.20
2023-02-19T21:45:08.848Z,3.60
2023-02-19T21:47:37.602Z,3.40
2023-02-19T21:50:06.646Z,2.90
2023-02-19T21:52:42.392Z,2.50
2023-02-19T21:55:10.488Z,2.70
2023-02-19T21:57:38.471Z,2.80
2023-02-19T22:00:08.521Z,2.10
2023-02-19T22:02:36.466Z,2.90
2023-02-19T22:05:04.636Z,2.50
2023-02-19T22:10:06.450Z,2.90
2023-02-19T22:12:34.495Z,2.70
2023-02-19T22:15:04.016Z,2.10
2023-02-19T22:17:31.943Z,2.90
2023-02-19T22:20:00.329Z,2.50
2023-02-19T22:22:28.212Z,3.70
2023-02-19T22:24:58.221Z,3.30
2023-02-19T22:27:28.599Z,2.90
2023-02-19T22:29:56.451Z,2.30
2023-02-19T22:32:24.759Z,5.30
2023-02-19T22:34:52.959Z,3.90
2023-02-19T22:37:24.788Z,2.70
2023-02-19T22:42:36.249Z,3.10
2023-02-19T22:45:05.688Z,3.10
2023-02-19T22:47:34.033Z,2.90
2023-02-19T22:50:02.112Z,2.40
2023-02-19T22:52:30.118Z,3.10
2023-02-19T22:54:58.156Z,3.10
2023-02-19T22:57:32.355Z,2.80
2023-02-19T23:00:00.846Z,3.30
2023-02-19T23:02:33.444Z,2.30
2023-02-19T23:05:01.820Z,2.40
2023-02-19T23:07:30.249Z,2.70
2023-02-19T23:09:58.215Z,2.70
2023-02-19T23:12:27.383Z,2.60
2023-02-19T23:14:56.750Z,2.90
2023-02-19T23:17:24.692Z,3.70
2023-02-19T23:19:55.093Z,2.80
2023-02-19T23:22:23.337Z,2.70
2023-02-19T23:24:51.308Z,2.80
2023-02-19T23:27:19.820Z,2.00
2023-02-19T23:29:48.148Z,2.10
2023-02-19T23:32:20.879Z,2.90
2023-02-19T23:34:48.848Z,2.60
2023-02-19T23:37:17.516Z,2.40
2023-02-19T23:39:45.490Z,3.80
2023-02-19T23:42:16.195Z,2.30
2023-02-19T23:44:47.135Z,4.10
2023-02-19T23:47:15.286Z,2.90
2023-02-19T23:49:43.249Z,3.20
2023-02-19T23:52:11.432Z,3.00
2023-02-19T23:54:39.564Z,2.70
2023-02-19T23:57:07.682Z,2.60
2023-02-19T23:59:36.659Z,2.40
